Time;durP1;ratioP1;P1;durP2;ratioP2;P2;SDS_P1;SDS_P2;PMS_P1;PMS_P2;Temp;Humidity;BMP_temperature;BMP_pressure;BME280_temperature;BME280_humidity;BME280_pressure;Samples;Min_cycle;Max_cycle;Signal;HPM_P1;HPM_P2
2024/01/22 00:01:59;;;;;;;;;;;17.30;45.80;;;;;;1569338;74;837;-72
2024/01/22 00:04:01;;;;;;;;;;;17.30;45.90;;;;;;1557089;74;1554;-69
2024/01/22 00:06:03;;;;;;;;;;;17.20;45.90;;;;;;1570298;74;637;-70
2024/01/22 00:08:05;;;;;;;;;;;17.30;45.90;;;;;;1572063;75;1123;-69
2024/01/22 00:10:08;;;;;;;;;;;17.30;45.80;;;;;;1569494;74;750;-70
2024/01/22 00:12:10;;;;;;;;;;;17.30;45.90;;;;;;1569393;74;599;-67
2024/01/22 00:14:12;;;;;;;;;;;17.30;45.90;;;;;;1568238;74;732;-67
2024/01/22 00:16:15;;;;;;;;;;;17.30;46.00;;;;;;1564846;74;681;-69
2024/01/22 00:18:17;;;;;;;;;;;17.30;46.00;;;;;;1570812;74;1902;-69
2024/01/22 00:20:20;;;;;;;;;;;17.30;46.00;;;;;;1572590;74;668;-67
2024/01/22 00:22:22;;;;;;;;;;;17.30;45.90;;;;;;1569429;74;797;-69
2024/01/22 00:24:24;;;;;;;;;;;17.30;46.00;;;;;;1572212;74;589;-70
2024/01/22 00:26:26;;;;;;;;;;;17.40;46.00;;;;;;1566731;74;757;-69
2024/01/22 00:28:27;;;;;;;;;;;17.40;45.90;;;;;;1568718;74;1131;-70
2024/01/22 00:30:29;;;;;;;;;;;17.40;45.90;;;;;;1569523;74;806;-70
2024/01/22 00:32:31;;;;;;;;;;;17.30;45.90;;;;;;1566430;74;753;-69
2024/01/22 00:34:33;;;;;;;;;;;17.30;45.90;;;;;;1573004;74;793;-72
2024/01/22 00:36:35;;;;;;;;;;;17.40;45.90;;;;;;1562306;74;706;-68
2024/01/22 00:38:37;;;;;;;;;;;17.40;45.80;;;;;;1573248;74;1943;-68
2024/01/22 00:40:39;;;;;;;;;;;17.30;45.90;;;;;;1569023;74;787;-68
2024/01/22 00:42:42;;;;;;;;;;;17.40;45.70;;;;;;1565480;74;834;-67
2024/01/22 00:44:44;;;;;;;;;;;17.30;45.90;;;;;;1564217;74;690;-67
2024/01/22 00:46:46;;;;;;;;;;;17.30;45.80;;;;;;1570673;74;603;-72
2024/01/22 00:48:48;;;;;;;;;;;17.40;45.80;;;;;;1569468;74;1159;-71
2024/01/22 00:50:50;;;;;;;;;;;17.40;45.80;;;;;;1571239;75;670;-71
2024/01/22 00:52:52;;;;;;;;;;;17.40;45.80;;;;;;1573980;74;770;-71
2024/01/22 00:54:54;;;;;;;;;;;17.40;45.80;;;;;;1562952;74;747;-66
2024/01/22 00:56:56;;;;;;;;;;;17.40;45.80;;;;;;1556187;74;818;-69
2024/01/22 00:58:58;;;;;;;;;;;17.40;45.70;;;;;;1566970;74;1922;-72
2024/01/22 01:01:00;;;;;;;;;;;17.30;45.70;;;;;;1570807;74;1586;-68
2024/01/22 01:03:02;;;;;;;;;;;17.40;45.70;;;;;;1566421;74;754;-68
2024/01/22 01:05:04;;;;;;;;;;;17.40;45.70;;;;;;1567964;74;811;-72
2024/01/22 01:07:07;;;;;;;;;;;17.40;45.70;;;;;;1568100;74;803;-70
2024/01/22 01:09:08;;;;;;;;;;;17.40;45.60;;;;;;1564910;74;1118;-67
2024/01/22 01:11:10;;;;;;;;;;;17.40;45.70;;;;;;1568065;74;783;-67
2024/01/22 01:13:12;;;;;;;;;;;17.40;45.60;;;;;;1570016;74;837;-70
2024/01/22 01:15:14;;;;;;;;;;;17.40;45.70;;;;;;1565305;74;724;-70
2024/01/22 01:17:16;;;;;;;;;;;17.40;45.70;;;;;;1566415;75;666;-69
2024/01/22 01:19:18;;;;;;;;;;;17.40;45.70;;;;;;1559761;74;1940;-70
2024/01/22 01:21:22;;;;;;;;;;;17.40;45.70;;;;;;1563339;74;678;-69
2024/01/22 01:23:23;;;;;;;;;;;17.40;45.70;;;;;;1566031;74;1507;-66
2024/01/22 01:25:25;;;;;;;;;;;17.40;45.60;;;;;;1576711;74;791;-66
2024/01/22 01:27:27;;;;;;;;;;;17.40;45.60;;;;;;1566622;74;734;-65
2024/01/22 01:29:29;;;;;;;;;;;17.40;45.60;;;;;;1563253;75;1153;-70
2024/01/22 01:31:31;;;;;;;;;;;17.40;45.70;;;;;;1573104;74;860;-70
2024/01/22 01:33:33;;;;;;;;;;;17.40;45.60;;;;;;1563667;74;672;-69
2024/01/22 01:35:35;;;;;;;;;;;17.40;45.50;;;;;;1563836;74;726;-71
2024/01/22 01:37:37;;;;;;;;;;;17.40;45.50;;;;;;1565747;74;1148;-68
2024/01/22 01:39:38;;;;;;;;;;;17.40;45.60;;;;;;1555223;74;1926;-67
2024/01/22 01:41:40;;;;;;;;;;;17.40;45.60;;;;;;1576807;74;768;-70
2024/01/22 01:43:42;;;;;;;;;;;17.40;45.60;;;;;;1561765;74;683;-71
2024/01/22 01:45:44;;;;;;;;;;;17.40;45.50;;;;;;1558512;74;789;-71
2024/01/22 01:47:49;;;;;;;;;;;17.40;45.60;;;;;;1572335;74;1156;-70
2024/01/22 01:49:51;;;;;;;;;;;17.40;45.50;;;;;;1572653;74;771;-69
2024/01/22 01:51:53;;;;;;;;;;;17.40;45.50;;;;;;1566307;74;592;-67
2024/01/22 01:53:55;;;;;;;;;;;17.40;45.50;;;;;;1573378;74;614;-69
2024/01/22 01:55:57;;;;;;;;;;;17.40;45.50;;;;;;1570297;75;1531;-70
2024/01/22 01:57:59;;;;;;;;;;;17.40;45.40;;;;;;1571033;74;1953;-70
2024/01/22 02:00:00;;;;;;;;;;;17.40;45.40;;;;;;1566356;74;714;-70
2024/01/22 02:02:02;;;;;;;;;;;17.40;45.50;;;;;;1571427;74;766;-69
2024/01/22 02:04:04;;;;;;;;;;;17.40;45.40;;;;;;1563727;74;712;-72
2024/01/22 02:06:06;;;;;;;;;;;17.40;45.30;;;;;;1562012;74;822;-70
2024/01/22 02:08:08;;;;;;;;;;;17.40;45.40;;;;;;1564162;74;1145;-72
2024/01/22 02:10:13;;;;;;;;;;;17.40;45.40;;;;;;1571147;74;720;-68
2024/01/22 02:12:18;;;;;;;;;;;17.40;45.30;;;;;;1562277;74;714;-70
2024/01/22 02:14:20;;;;;;;;;;;17.40;45.40;;;;;;1567572;75;722;-70
2024/01/22 02:16:22;;;;;;;;;;;17.40;45.40;;;;;;1567900;74;796;-70
2024/01/22 02:18:23;;;;;;;;;;;17.40;45.30;;;;;;1569224;74;1934;-70
2024/01/22 02:20:25;;;;;;;;;;;17.30;45.30;;;;;;1568623;74;732;-70
2024/01/22 02:22:27;;;;;;;;;;;17.30;45.40;;;;;;1563705;74;762;-73
2024/01/22 02:24:29;;;;;;;;;;;17.40;45.40;;;;;;1565981;74;807;-72
2024/01/22 02:26:31;;;;;;;;;;;17.30;45.30;;;;;;1575177;74;623;-70
2024/01/22 02:28:33;;;;;;;;;;;17.40;45.30;;;;;;1560905;74;1154;-69
2024/01/22 02:30:35;;;;;;;;;;;17.40;45.30;;;;;;1557235;74;733;-68
2024/01/22 02:32:36;;;;;;;;;;;17.30;45.30;;;;;;1570314;74;749;-68
2024/01/22 02:34:38;;;;;;;;;;;17.30;45.30;;;;;;1563851;74;743;-68
2024/01/22 02:36:40;;;;;;;;;;;17.30;45.30;;;;;;1562954;74;771;-67
2024/01/22 02:38:42;;;;;;;;;;;17.30;45.40;;;;;;1568549;74;1966;-68
2024/01/22 02:40:44;;;;;;;;;;;17.30;45.20;;;;;;1568971;74;755;-67
2024/01/22 02:42:46;;;;;;;;;;;17.30;45.30;;;;;;1563350;74;678;-69
2024/01/22 02:44:48;;;;;;;;;;;17.30;45.30;;;;;;1572150;74;577;-69
2024/01/22 02:46:49;;;;;;;;;;;17.30;45.30;;;;;;1564354;74;667;-70
2024/01/22 02:48:51;;;;;;;;;;;17.30;45.30;;;;;;1556479;74;1098;-65
2024/01/22 02:50:53;;;;;;;;;;;17.30;45.30;;;;;;1571214;74;752;-65
2024/01/22 02:52:55;;;;;;;;;;;17.40;45.30;;;;;;1568069;74;1498;-66
2024/01/22 02:54:57;;;;;;;;;;;17.30;45.20;;;;;;1566966;74;786;-71
2024/01/22 02:56:59;;;;;;;;;;;17.30;45.30;;;;;;1564227;74;765;-71
2024/01/22 02:59:01;;;;;;;;;;;17.30;45.30;;;;;;1560290;75;1955;-71
2024/01/22 03:01:03;;;;;;;;;;;17.30;45.30;;;;;;1561677;74;724;-68
2024/01/22 03:03:05;;;;;;;;;;;17.30;45.30;;;;;;1570841;74;783;-68
2024/01/22 03:05:07;;;;;;;;;;;17.30;45.30;;;;;;1558838;75;724;-73
2024/01/22 03:07:09;;;;;;;;;;;17.30;45.40;;;;;;1569875;74;732;-70
2024/01/22 03:09:11;;;;;;;;;;;17.30;45.30;;;;;;1568478;74;1092;-70
2024/01/22 03:11:13;;;;;;;;;;;17.30;45.30;;;;;;1562678;74;802;-69
2024/01/22 03:13:15;;;;;;;;;;;17.30;45.30;;;;;;1565399;74;663;-70
2024/01/22 03:15:17;;;;;;;;;;;17.30;45.20;;;;;;1559307;74;821;-68
2024/01/22 03:17:18;;;;;;;;;;;17.30;45.30;;;;;;1575164;74;718;-70
2024/01/22 03:19:20;;;;;;;;;;;17.30;45.20;;;;;;1565294;75;1942;-70
2024/01/22 03:21:22;;;;;;;;;;;17.30;45.20;;;;;;1566853;74;650;-69
2024/01/22 03:23:24;;;;;;;;;;;17.30;45.20;;;;;;1557058;74;654;-70
2024/01/22 03:25:26;;;;;;;;;;;17.30;45.30;;;;;;1577446;74;736;-71
2024/01/22 03:27:28;;;;;;;;;;;17.30;45.20;;;;;;1564570;75;751;-69
2024/01/22 03:29:30;;;;;;;;;;;17.30;45.30;;;;;;1568800;74;1189;-69
2024/01/22 03:31:32;;;;;;;;;;;17.30;45.20;;;;;;1572061;74;714;-70
2024/01/22 03:33:34;;;;;;;;;;;17.30;45.20;;;;;;1572326;74;684;-67
2024/01/22 03:35:36;;;;;;;;;;;17.20;45.10;;;;;;1566421;74;772;-72
2024/01/22 03:37:38;;;;;;;;;;;17.30;45.30;;;;;;1558390;74;1102;-70
2024/01/22 03:39:40;;;;;;;;;;;17.30;45.20;;;;;;1557004;74;1917;-69
2024/01/22 03:41:42;;;;;;;;;;;17.30;45.20;;;;;;1573121;74;800;-68
2024/01/22 03:43:44;;;;;;;;;;;17.20;45.10;;;;;;1572565;74;750;-68
2024/01/22 03:45:46;;;;;;;;;;;17.30;45.20;;;;;;1567822;74;701;-71
2024/01/22 03:47:48;;;;;;;;;;;17.30;45.20;;;;;;1559928;74;1106;-70
2024/01/22 03:49:50;;;;;;;;;;;17.20;45.10;;;;;;1573179;74;1541;-69
2024/01/22 03:51:51;;;;;;;;;;;17.20;45.00;;;;;;1562727;74;682;-72
2024/01/22 03:53:53;;;;;;;;;;;17.20;45.10;;;;;;1559139;74;707;-69
2024/01/22 03:55:55;;;;;;;;;;;17.30;45.20;;;;;;1570554;74;699;-67
2024/01/22 03:57:57;;;;;;;;;;;17.20;45.00;;;;;;1566694;74;1129;-69
2024/01/22 03:59:59;;;;;;;;;;;17.20;45.00;;;;;;1562704;74;1926;-70
2024/01/22 04:02:01;;;;;;;;;;;17.30;45.20;;;;;;1562057;74;714;-67
2024/01/22 04:04:03;;;;;;;;;;;17.30;45.20;;;;;;1569332;74;681;-70
2024/01/22 04:06:06;;;;;;;;;;;17.30;45.20;;;;;;1568125;74;725;-67
2024/01/22 04:08:07;;;;;;;;;;;17.20;45.20;;;;;;1556270;74;1157;-72
2024/01/22 04:10:09;;;;;;;;;;;17.20;45.00;;;;;;1569399;74;752;-66
2024/01/22 04:12:11;;;;;;;;;;;17.30;45.20;;;;;;1565492;74;750;-71
2024/01/22 04:14:13;;;;;;;;;;;17.30;45.20;;;;;;1554376;74;733;-70
2024/01/22 04:16:15;;;;;;;;;;;17.30;45.30;;;;;;1569389;74;743;-67
2024/01/22 04:18:17;;;;;;;;;;;17.30;45.20;;;;;;1568496;74;1152;-70
2024/01/22 04:20:19;;;;;;;;;;;17.20;45.10;;;;;;1570168;74;1934;-70
2024/01/22 04:22:21;;;;;;;;;;;17.20;45.10;;;;;;1567816;74;740;-71
2024/01/22 04:24:23;;;;;;;;;;;17.30;45.20;;;;;;1566830;74;664;-70
2024/01/22 04:26:25;;;;;;;;;;;17.20;45.10;;;;;;1556266;74;791;-69
2024/01/22 04:28:26;;;;;;;;;;;17.20;45.20;;;;;;1571217;74;1131;-69
2024/01/22 04:30:28;;;;;;;;;;;17.20;45.10;;;;;;1572267;74;684;-70
2024/01/22 04:32:30;;;;;;;;;;;17.20;45.10;;;;;;1562203;74;722;-71
2024/01/22 04:34:32;;;;;;;;;;;17.30;45.20;;;;;;1560805;74;844;-67
2024/01/22 04:36:34;;;;;;;;;;;17.20;45.10;;;;;;1554131;74;697;-68
2024/01/22 04:38:36;;;;;;;;;;;17.20;45.00;;;;;;1572064;75;1090;-69
2024/01/22 04:40:38;;;;;;;;;;;17.30;45.20;;;;;;1566391;74;1939;-71
2024/01/22 04:42:41;;;;;;;;;;;17.30;45.20;;;;;;1572711;74;721;-68
2024/01/22 04:44:43;;;;;;;;;;;17.20;45.10;;;;;;1564663;74;1468;-69
2024/01/22 04:46:44;;;;;;;;;;;17.30;45.20;;;;;;1569520;74;735;-71
2024/01/22 04:48:47;;;;;;;;;;;17.20;45.00;;;;;;1566631;74;1246;-69
2024/01/22 04:50:49;;;;;;;;;;;17.20;45.10;;;;;;1569444;74;745;-70
2024/01/22 04:52:51;;;;;;;;;;;17.20;45.00;;;;;;1568851;74;686;-66
2024/01/22 04:54:53;;;;;;;;;;;17.20;45.00;;;;;;1566152;74;673;-67
2024/01/22 04:56:54;;;;;;;;;;;17.20;45.00;;;;;;1568116;74;732;-69
2024/01/22 04:58:56;;;;;;;;;;;17.20;45.00;;;;;;1570651;74;1930;-68
2024/01/22 05:00:58;;;;;;;;;;;17.20;45.00;;;;;;1571574;74;832;-66
2024/01/22 05:03:04;;;;;;;;;;;17.20;45.00;;;;;;1569064;74;749;-69
2024/01/22 05:05:04;;;;;;;;;;;17.20;45.00;;;;;;1548431;75;1664;-70
2024/01/22 05:07:06;;;;;;;;;;;17.20;45.00;;;;;;1566734;74;591;-65
2024/01/22 05:09:07;;;;;;;;;;;17.20;45.00;;;;;;1559629;74;1134;-67
2024/01/22 05:11:09;;;;;;;;;;;17.20;44.90;;;;;;1561115;74;600;-72
2024/01/22 05:13:13;;;;;;;;;;;17.20;44.90;;;;;;1558507;74;708;-66
2024/01/22 05:15:15;;;;;;;;;;;17.20;45.00;;;;;;1569896;74;776;-70
2024/01/22 05:17:17;;;;;;;;;;;17.20;44.90;;;;;;1570308;74;605;-69
2024/01/22 05:19:19;;;;;;;;;;;17.20;44.90;;;;;;1562722;74;1921;-70
2024/01/22 05:21:21;;;;;;;;;;;17.20;44.90;;;;;;1575750;74;798;-71
2024/01/22 05:23:23;;;;;;;;;;;17.20;44.90;;;;;;1576359;74;700;-69
2024/01/22 05:25:25;;;;;;;;;;;17.20;44.90;;;;;;1562943;74;805;-68
2024/01/22 05:27:27;;;;;;;;;;;17.20;44.90;;;;;;1564814;74;644;-67
2024/01/22 05:29:29;;;;;;;;;;;17.20;44.90;;;;;;1571803;74;1115;-69
2024/01/22 05:31:30;;;;;;;;;;;17.20;44.90;;;;;;1567676;74;667;-68
2024/01/22 05:33:32;;;;;;;;;;;17.20;44.90;;;;;;1558018;74;743;-70
2024/01/22 05:35:35;;;;;;;;;;;17.20;44.90;;;;;;1569455;74;816;-70
2024/01/22 05:37:37;;;;;;;;;;;17.20;44.90;;;;;;1561684;74;1140;-70
2024/01/22 05:39:39;;;;;;;;;;;17.20;44.90;;;;;;1570798;74;1926;-70
2024/01/22 05:41:41;;;;;;;;;;;17.20;44.90;;;;;;1575694;74;685;-69
2024/01/22 05:43:43;;;;;;;;;;;17.20;44.90;;;;;;1556398;74;771;-67
2024/01/22 05:45:45;;;;;;;;;;;17.20;44.90;;;;;;1572075;75;1569;-70
2024/01/22 05:47:47;;;;;;;;;;;17.20;44.90;;;;;;1567663;74;1170;-65
2024/01/22 05:49:49;;;;;;;;;;;16.50;44.50;;;;;;1570478;74;569;-70
2024/01/22 05:51:51;;;;;;;;;;;17.20;44.80;;;;;;1569551;74;776;-69
2024/01/22 05:53:53;;;;;;;;;;;17.20;44.80;;;;;;1564252;74;874;-69
2024/01/22 05:55:55;;;;;;;;;;;17.20;44.90;;;;;;1564838;74;725;-70
2024/01/22 05:57:56;;;;;;;;;;;17.20;44.90;;;;;;1564444;74;1092;-69
2024/01/22 05:59:58;;;;;;;;;;;17.20;44.80;;;;;;1567043;74;1944;-70
2024/01/22 06:02:00;;;;;;;;;;;17.20;44.90;;;;;;1562673;74;713;-70
2024/01/22 06:04:04;;;;;;;;;;;17.20;44.80;;;;;;1566865;74;725;-70
2024/01/22 06:06:06;;;;;;;;;;;17.20;44.90;;;;;;1570483;74;704;-69
2024/01/22 06:08:07;;;;;;;;;;;17.30;45.00;;;;;;1570551;74;1121;-70
2024/01/22 06:10:09;;;;;;;;;;;17.20;44.90;;;;;;1570859;74;679;-68
2024/01/22 06:12:11;;;;;;;;;;;17.20;44.90;;;;;;1564759;75;793;-68
2024/01/22 06:14:13;;;;;;;;;;;17.10;44.90;;;;;;1573214;74;816;-70
2024/01/22 06:16:15;;;;;;;;;;;17.20;44.80;;;;;;1570812;74;768;-69
2024/01/22 06:18:17;;;;;;;;;;;17.20;44.80;;;;;;1568409;74;1139;-71
2024/01/22 06:20:19;;;;;;;;;;;17.20;44.80;;;;;;1570127;75;1948;-70
2024/01/22 06:22:21;;;;;;;;;;;17.10;44.80;;;;;;1568405;74;773;-70
2024/01/22 06:24:22;;;;;;;;;;;17.20;44.70;;;;;;1569242;74;785;-71
2024/01/22 06:26:24;;;;;;;;;;;17.10;44.70;;;;;;1576223;75;811;-67
2024/01/22 06:28:26;;;;;;;;;;;17.20;44.70;;;;;;1573757;74;1177;-68
2024/01/22 06:30:28;;;;;;;;;;;17.10;44.80;;;;;;1571188;74;781;-72
2024/01/22 06:32:30;;;;;;;;;;;17.20;44.70;;;;;;1575607;74;695;-67
2024/01/22 06:34:32;;;;;;;;;;;17.20;44.70;;;;;;1569097;75;760;-70
2024/01/22 06:36:34;;;;;;;;;;;17.10;44.70;;;;;;1562116;74;788;-69
2024/01/22 06:38:36;;;;;;;;;;;17.10;44.80;;;;;;1562137;74;1144;-70
2024/01/22 06:40:38;;;;;;;;;;;17.20;44.80;;;;;;1562338;74;1920;-69
2024/01/22 06:42:39;;;;;;;;;;;17.20;44.70;;;;;;1565479;74;831;-69
2024/01/22 06:44:41;;;;;;;;;;;17.10;44.70;;;;;;1569465;74;1526;-69
2024/01/22 06:46:43;;;;;;;;;;;17.10;44.70;;;;;;1565111;74;686;-66
2024/01/22 06:48:45;;;;;;;;;;;17.20;44.70;;;;;;1565466;74;1113;-69
2024/01/22 06:50:47;;;;;;;;;;;17.10;44.70;;;;;;1562672;74;725;-68
2024/01/22 06:52:49;;;;;;;;;;;17.20;44.70;;;;;;1560292;74;737;-70
2024/01/22 06:54:51;;;;;;;;;;;17.10;44.70;;;;;;1566359;75;773;-70
2024/01/22 06:56:53;;;;;;;;;;;17.20;44.70;;;;;;1555569;74;753;-71
2024/01/22 06:58:54;;;;;;;;;;;17.20;44.70;;;;;;1569797;74;1146;-67
2024/01/22 07:00:56;;;;;;;;;;;17.20;44.70;;;;;;1560264;74;1942;-69
2024/01/22 07:02:58;;;;;;;;;;;17.20;44.70;;;;;;1571718;74;752;-67
2024/01/22 07:05:00;;;;;;;;;;;17.20;44.70;;;;;;1564675;74;601;-70
2024/01/22 07:07:03;;;;;;;;;;;17.10;44.70;;;;;;1567864;74;702;-68
2024/01/22 07:09:06;;;;;;;;;;;17.10;44.70;;;;;;1565136;74;1169;-68
2024/01/22 07:11:08;;;;;;;;;;;17.10;44.70;;;;;;1562811;74;704;-68
2024/01/22 07:13:10;;;;;;;;;;;17.10;44.70;;;;;;1563702;74;752;-70
2024/01/22 07:15:15;;;;;;;;;;;17.20;44.70;;;;;;1568647;74;682;-68
2024/01/22 07:17:17;;;;;;;;;;;17.10;44.70;;;;;;1563530;74;602;-69
2024/01/22 07:19:18;;;;;;;;;;;17.10;44.70;;;;;;1570885;74;1136;-69
2024/01/22 07:21:20;;;;;;;;;;;17.10;44.70;;;;;;1573698;74;1949;-68
2024/01/22 07:23:22;;;;;;;;;;;17.10;44.70;;;;;;1560759;74;681;-67
2024/01/22 07:25:24;;;;;;;;;;;17.10;44.70;;;;;;1574534;74;752;-72
2024/01/22 07:27:26;;;;;;;;;;;17.10;44.70;;;;;;1571297;74;641;-68
2024/01/22 07:29:28;;;;;;;;;;;17.10;44.70;;;;;;1554392;74;1148;-69
2024/01/22 07:31:30;;;;;;;;;;;17.10;44.70;;;;;;1568175;74;749;-71
2024/01/22 07:33:32;;;;;;;;;;;17.10;44.70;;;;;;1568605;74;779;-70
2024/01/22 07:35:34;;;;;;;;;;;17.10;44.70;;;;;;1574334;74;802;-70
2024/01/22 07:37:36;;;;;;;;;;;17.10;44.80;;;;;;1569694;74;1237;-69
2024/01/22 07:39:38;;;;;;;;;;;17.10;44.70;;;;;;1570141;74;774;-69
2024/01/22 07:41:39;;;;;;;;;;;17.20;44.70;;;;;;1570527;74;1911;-69
2024/01/22 07:43:41;;;;;;;;;;;17.10;44.80;;;;;;1567402;74;812;-69
2024/01/22 07:45:43;;;;;;;;;;;17.10;44.70;;;;;;1563986;74;757;-69
2024/01/22 07:47:45;;;;;;;;;;;17.30;44.90;;;;;;1568195;74;1122;-72
2024/01/22 07:49:47;;;;;;;;;;;17.10;44.70;;;;;;1574305;74;700;-65
2024/01/22 07:51:49;;;;;;;;;;;17.10;44.70;;;;;;1559251;74;792;-69
2024/01/22 07:53:51;;;;;;;;;;;17.10;44.70;;;;;;1567016;74;688;-68
2024/01/22 07:55:53;;;;;;;;;;;17.10;44.70;;;;;;1569779;74;637;-67
2024/01/22 07:57:55;;;;;;;;;;;17.10;44.70;;;;;;1567249;74;1159;-69
2024/01/22 07:59:56;;;;;;;;;;;17.10;44.70;;;;;;1568067;74;714;-71
2024/01/22 08:01:58;;;;;;;;;;;17.10;44.70;;;;;;1563690;74;1937;-70
2024/01/22 08:04:02;;;;;;;;;;;17.10;44.70;;;;;;1570878;74;868;-70
2024/01/22 08:06:04;;;;;;;;;;;17.10;44.70;;;;;;1572399;74;1757;-68
2024/01/22 08:08:09;;;;;;;;;;;17.10;44.70;;;;;;1562123;74;1261;-68
2024/01/22 08:10:10;;;;;;;;;;;17.10;44.70;;;;;;1558044;74;1648;-70
2024/01/22 08:12:12;;;;;;;;;;;17.10;44.70;;;;;;1561163;74;780;-70
2024/01/22 08:14:14;;;;;;;;;;;17.10;44.70;;;;;;1571451;74;695;-65
2024/01/22 08:16:16;;;;;;;;;;;17.20;44.70;;;;;;1567415;74;680;-69
2024/01/22 08:18:17;;;;;;;;;;;17.10;44.70;;;;;;1557910;74;1150;-69
2024/01/22 08:20:19;;;;;;;;;;;17.10;44.70;;;;;;1571572;74;1946;-69
2024/01/22 08:22:21;;;;;;;;;;;17.10;44.70;;;;;;1567359;74;754;-65
2024/01/22 08:24:23;;;;;;;;;;;17.10;44.70;;;;;;1570761;74;773;-69
2024/01/22 08:26:25;;;;;;;;;;;17.10;44.70;;;;;;1569227;74;672;-68
2024/01/22 08:28:27;;;;;;;;;;;17.10;44.70;;;;;;1570140;74;1177;-69
2024/01/22 08:30:29;;;;;;;;;;;17.10;44.70;;;;;;1576691;74;601;-69
2024/01/22 08:32:31;;;;;;;;;;;17.10;44.70;;;;;;1562798;74;769;-66
2024/01/22 08:34:37;;;;;;;;;;;17.10;44.70;;;;;;1564668;74;747;-69
2024/01/22 08:36:37;;;;;;;;;;;17.10;44.70;;;;;;1568713;74;1544;-70
2024/01/22 08:38:38;;;;;;;;;;;17.10;44.70;;;;;;1570565;74;1507;-71
2024/01/22 08:40:40;;;;;;;;;;;17.10;44.70;;;;;;1570367;74;1955;-70
2024/01/22 08:42:42;;;;;;;;;;;17.10;44.70;;;;;;1564738;74;729;-72
2024/01/22 08:44:44;;;;;;;;;;;17.10;44.70;;;;;;1572067;74;802;-69
2024/01/22 08:46:46;;;;;;;;;;;17.10;44.70;;;;;;1561629;74;684;-69
2024/01/22 08:48:49;;;;;;;;;;;17.10;44.60;;;;;;1562796;75;1161;-67
2024/01/22 08:50:51;;;;;;;;;;;17.10;44.70;;;;;;1566468;74;782;-66
2024/01/22 08:52:53;;;;;;;;;;;17.10;44.70;;;;;;1569806;74;816;-66
2024/01/22 08:54:55;;;;;;;;;;;17.10;44.70;;;;;;1570692;74;798;-70
2024/01/22 08:56:57;;;;;;;;;;;17.10;44.70;;;;;;1580861;74;840;-67
2024/01/22 08:58:59;;;;;;;;;;;17.10;44.70;;;;;;1565614;74;1137;-70
2024/01/22 09:01:05;;;;;;;;;;;17.10;44.70;;;;;;1573870;74;1935;-70
2024/01/22 09:03:04;;;;;;;;;;;17.10;44.70;;;;;;1573667;74;1657;-69
2024/01/22 09:05:10;;;;;;;;;;;17.10;44.70;;;;;;1570320;75;666;-71
2024/01/22 09:07:12;;;;;;;;;;;17.10;44.70;;;;;;1564904;74;701;-70
2024/01/22 09:09:14;;;;;;;;;;;17.10;44.70;;;;;;1575764;74;1120;-67
2024/01/22 09:11:16;;;;;;;;;;;17.10;44.70;;;;;;1566720;74;695;-69
2024/01/22 09:13:18;;;;;;;;;;;17.10;44.70;;;;;;1565481;74;654;-69
2024/01/22 09:15:20;;;;;;;;;;;17.10;44.70;;;;;;1568211;74;744;-67
2024/01/22 09:17:22;;;;;;;;;;;17.10;44.70;;;;;;1566151;74;814;-68
2024/01/22 09:19:24;;;;;;;;;;;17.10;44.70;;;;;;1569240;74;1126;-67
2024/01/22 09:21:26;;;;;;;;;;;17.10;44.60;;;;;;1564780;74;1924;-68
2024/01/22 09:23:28;;;;;;;;;;;17.10;44.70;;;;;;1564331;74;777;-70
2024/01/22 09:25:30;;;;;;;;;;;17.10;44.70;;;;;;1572796;74;699;-70
2024/01/22 09:27:32;;;;;;;;;;;17.10;44.70;;;;;;1561651;74;697;-69
2024/01/22 09:29:34;;;;;;;;;;;17.50;44.90;;;;;;1569622;74;1238;-69
2024/01/22 09:31:36;;;;;;;;;;;17.10;44.70;;;;;;1569470;74;744;-69
2024/01/22 09:33:38;;;;;;;;;;;17.10;44.60;;;;;;1567592;74;1569;-70
2024/01/22 09:35:40;;;;;;;;;;;17.10;44.60;;;;;;1570641;74;731;-65
2024/01/22 09:37:42;;;;;;;;;;;17.10;44.60;;;;;;1563451;74;1154;-71
2024/01/22 09:39:44;;;;;;;;;;;17.10;44.60;;;;;;1561152;74;922;-71
2024/01/22 09:41:48;;;;;;;;;;;17.10;44.60;;;;;;1561878;74;1938;-71
2024/01/22 09:43:50;;;;;;;;;;;17.10;44.50;;;;;;1561226;74;775;-69
2024/01/22 09:45:52;;;;;;;;;;;17.00;44.40;;;;;;1567553;74;757;-70
2024/01/22 09:47:54;;;;;;;;;;;17.10;44.50;;;;;;1562209;74;1117;-66
2024/01/22 09:49:56;;;;;;;;;;;17.10;44.50;;;;;;1570482;74;745;-70
2024/01/22 09:51:58;;;;;;;;;;;17.10;44.60;;;;;;1563936;74;771;-70
2024/01/22 09:54:02;;;;;;;;;;;17.10;44.50;;;;;;1564873;74;730;-69
2024/01/22 09:56:06;;;;;;;;;;;17.00;44.40;;;;;;1565428;75;639;-68
2024/01/22 09:58:11;;;;;;;;;;;17.10;44.40;;;;;;1564035;74;1142;-73
2024/01/22 10:00:14;;;;;;;;;;;17.10;44.50;;;;;;1569126;74;788;-67
2024/01/22 10:02:19;;;;;;;;;;;17.00;44.40;;;;;;1565786;74;1930;-70
2024/01/22 10:04:26;;;;;;;;;;;17.10;44.40;;;;;;1565948;74;597;-69
2024/01/22 10:06:25;;;;;;;;;;;17.20;44.40;;;;;;1557093;74;1407;-68
2024/01/22 10:08:27;;;;;;;;;;;17.10;44.40;;;;;;1569933;74;1150;-68
2024/01/22 10:10:29;;;;;;;;;;;17.10;44.40;;;;;;1565140;74;721;-71
2024/01/22 10:12:30;;;;;;;;;;;17.10;44.40;;;;;;1569798;74;757;-71
2024/01/22 10:14:37;;;;;;;;;;;17.20;44.40;;;;;;1521659;76;728;-68
2024/01/22 10:16:39;;;;;;;;;;;17.00;44.30;;;;;;1564172;74;1523;-72
2024/01/22 10:18:40;;;;;;;;;;;17.10;44.40;;;;;;1570897;74;1173;-70
2024/01/22 10:20:43;;;;;;;;;;;17.10;44.40;;;;;;1529636;76;1012;-68
2024/01/22 10:22:45;;;;;;;;;;;17.10;44.40;;;;;;1568471;74;1938;-70
2024/01/22 10:24:54;;;;;;;;;;;17.10;44.40;;;;;;1573188;74;864;-68
2024/01/22 10:26:57;;;;;;;;;;;17.10;44.40;;;;;;1572349;74;1042;-72
2024/01/22 10:29:22;;;;;;;;;;;17.00;44.30;;;;;;1570196;74;1141;-70
2024/01/22 10:31:25;;;;;;;;;;;17.10;44.40;;;;;;1570064;74;1473;-70
2024/01/22 10:33:28;;;;;;;;;;;17.10;44.40;;;;;;1557433;74;705;-71
2024/01/22 10:35:32;;;;;;;;;;;17.10;44.40;;;;;;1567926;74;783;-70
2024/01/22 10:37:33;;;;;;;;;;;17.10;44.40;;;;;;1565543;74;1642;-73
2024/01/22 10:39:35;;;;;;;;;;;17.10;44.40;;;;;;1561265;74;1181;-70
2024/01/22 10:41:40;;;;;;;;;;;17.10;44.40;;;;;;1570307;74;1939;-69
2024/01/22 10:43:40;;;;;;;;;;;17.10;44.40;;;;;;1564126;74;1529;-70
2024/01/22 10:45:42;;;;;;;;;;;17.10;44.40;;;;;;1569196;74;804;-68
2024/01/22 10:47:44;;;;;;;;;;;17.10;44.40;;;;;;1571045;74;1177;-72
2024/01/22 10:49:46;;;;;;;;;;;17.20;44.40;;;;;;1568859;75;747;-68
2024/01/22 10:51:48;;;;;;;;;;;17.20;44.40;;;;;;1568267;74;844;-69
2024/01/22 10:53:50;;;;;;;;;;;17.10;44.40;;;;;;1531655;76;763;-69
2024/01/22 10:55:53;;;;;;;;;;;17.10;44.40;;;;;;1566873;74;694;-69
2024/01/22 10:57:55;;;;;;;;;;;17.10;44.40;;;;;;1560392;74;1164;-73
2024/01/22 10:59:57;;;;;;;;;;;17.10;44.30;;;;;;1567261;74;663;-71
2024/01/22 11:01:59;;;;;;;;;;;17.10;44.40;;;;;;1562129;74;1941;-70
2024/01/22 11:04:01;;;;;;;;;;;17.10;44.40;;;;;;1555945;75;719;-70
2024/01/22 11:06:03;;;;;;;;;;;17.10;44.30;;;;;;1572219;74;763;-69
2024/01/22 11:08:05;;;;;;;;;;;17.10;44.30;;;;;;1569546;74;1161;-68
2024/01/22 11:10:08;;;;;;;;;;;17.10;44.40;;;;;;1565955;74;747;-70
2024/01/22 11:12:11;;;;;;;;;;;17.10;44.30;;;;;;1566869;75;730;-70
2024/01/22 11:14:13;;;;;;;;;;;17.10;44.40;;;;;;1563617;74;801;-70
2024/01/22 11:16:14;;;;;;;;;;;17.10;44.40;;;;;;1564528;74;790;-70
2024/01/22 11:18:16;;;;;;;;;;;17.10;44.40;;;;;;1562457;74;1132;-70
2024/01/22 11:20:19;;;;;;;;;;;17.10;44.40;;;;;;1566175;74;787;-66
2024/01/22 11:22:21;;;;;;;;;;;17.00;44.30;;;;;;1570570;74;1942;-68
2024/01/22 11:24:23;;;;;;;;;;;17.10;44.30;;;;;;1565804;74;688;-67
2024/01/22 11:26:25;;;;;;;;;;;17.10;44.30;;;;;;1560393;74;1457;-69
2024/01/22 11:28:27;;;;;;;;;;;17.10;44.30;;;;;;1550328;74;1152;-69
2024/01/22 11:30:29;;;;;;;;;;;17.10;44.40;;;;;;1569111;74;616;-70
2024/01/22 11:32:31;;;;;;;;;;;17.10;44.40;;;;;;1527246;76;878;-73
2024/01/22 11:34:40;;;;;;;;;;;17.10;44.30;;;;;;1530304;76;817;-69
2024/01/22 11:36:56;;;;;;;;;;;17.10;44.40;;;;;;1545137;74;742;-71
2024/01/22 11:38:56;;;;;;;;;;;17.10;44.40;;;;;;1564303;74;1514;-70
2024/01/22 11:40:58;;;;;;;;;;;17.10;44.40;;;;;;1566671;74;681;-70
2024/01/22 11:43:00;;;;;;;;;;;17.10;44.30;;;;;;1564586;74;1946;-71
2024/01/22 11:45:09;;;;;;;;;;;17.10;44.30;;;;;;1570328;74;709;-71
2024/01/22 11:47:11;;;;;;;;;;;17.10;44.30;;;;;;1572259;74;1659;-72
2024/01/22 11:49:13;;;;;;;;;;;17.10;44.30;;;;;;1561944;74;1140;-70
2024/01/22 11:51:15;;;;;;;;;;;17.10;44.30;;;;;;1562838;74;676;-72
2024/01/22 11:53:17;;;;;;;;;;;17.10;44.30;;;;;;1562205;74;733;-70
2024/01/22 11:55:18;;;;;;;;;;;17.10;44.30;;;;;;1566233;74;724;-71
2024/01/22 11:57:20;;;;;;;;;;;17.10;44.40;;;;;;1568131;74;677;-67
2024/01/22 11:59:22;;;;;;;;;;;17.10;44.30;;;;;;1570906;74;1126;-71
2024/01/22 12:01:24;;;;;;;;;;;17.10;44.30;;;;;;1568646;74;648;-73
2024/01/22 12:03:26;;;;;;;;;;;17.10;44.30;;;;;;1568064;74;1968;-69
2024/01/22 12:05:28;;;;;;;;;;;17.10;44.30;;;;;;1570450;74;693;-70
2024/01/22 12:07:39;;;;;;;;;;;17.00;44.20;;;;;;1566054;74;679;-71
2024/01/22 12:09:41;;;;;;;;;;;17.10;44.30;;;;;;1568990;74;736;-72